createdAt,value
2023-03-16T00:02:10.303Z,3.21
2023-03-16T00:04:38.290Z,3.37
2023-03-16T00:07:07.040Z,3.46
2023-03-16T00:09:34.126Z,3.62
2023-03-16T00:12:04.738Z,3.84
2023-03-16T00:14:32.646Z,3.61
2023-03-16T00:16:59.667Z,3.68
2023-03-16T00:19:26.495Z,3.54
2023-03-16T00:21:53.699Z,3.31
2023-03-16T00:24:20.646Z,3.45
2023-03-16T00:26:48.552Z,3.28
2023-03-16T00:29:15.439Z,3.31
2023-03-16T00:31:45.561Z,3.38
2023-03-16T00:34:12.667Z,3.46
2023-03-16T00:36:39.527Z,3.39
2023-03-16T00:39:07.078Z,3.28
2023-03-16T00:41:38.186Z,3.16
2023-03-16T00:44:06.465Z,2.89
2023-03-16T00:46:34.435Z,2.92
2023-03-16T00:49:02.906Z,2.86
2023-03-16T00:51:33.751Z,2.79
2023-03-16T00:54:00.521Z,2.75
2023-03-16T00:56:27.342Z,2.74
2023-03-16T00:58:57.940Z,2.76
2023-03-16T01:01:25.270Z,2.85
2023-03-16T01:03:52.125Z,2.75
2023-03-16T01:06:20.786Z,2.77
2023-03-16T01:08:48.145Z,2.76
2023-03-16T01:11:18.643Z,2.83
2023-03-16T01:13:49.850Z,2.59
2023-03-16T01:16:19.186Z,2.46
2023-03-16T01:18:49.937Z,2.37
2023-03-16T01:21:16.814Z,2.32
2023-03-16T01:23:44.458Z,2.25
2023-03-16T01:26:12.656Z,2.16
2023-03-16T01:28:39.456Z,2.09
2023-03-16T01:31:10.425Z,2.13
2023-03-16T01:33:38.106Z,2.37
2023-03-16T01:36:15.220Z,2.37
2023-03-16T01:38:51.580Z,2.37
2023-03-16T01:41:18.828Z,2.47
2023-03-16T01:43:46.302Z,2.38
2023-03-16T01:46:18.471Z,2.16
2023-03-16T01:49:01.588Z,2.10
2023-03-16T01:51:42.242Z,2.01
2023-03-16T01:54:22.100Z,1.91
2023-03-16T01:57:07.049Z,1.83
2023-03-16T01:59:40.194Z,1.78
2023-03-16T02:02:09.184Z,1.77
2023-03-16T02:04:37.160Z,1.74
2023-03-16T02:07:07.910Z,1.80
2023-03-16T02:09:46.619Z,1.71
2023-03-16T02:12:18.127Z,1.65
2023-03-16T02:14:50.485Z,1.57
2023-03-16T02:17:21.704Z,1.47
2023-03-16T02:20:16.802Z,1.48
2023-03-16T02:22:48.995Z,1.57
2023-03-16T02:25:18.830Z,1.52
2023-03-16T02:28:00.952Z,1.50
2023-03-16T02:30:28.587Z,1.48
2023-03-16T02:32:59.516Z,1.48
2023-03-16T02:35:26.478Z,1.47
2023-03-16T02:37:53.597Z,1.45
2023-03-16T02:40:43.953Z,1.48
2023-03-16T02:43:16.925Z,1.42
2023-03-16T02:45:53.725Z,1.47
2023-03-16T02:48:37.450Z,1.35
2023-03-16T02:51:06.546Z,1.42
2023-03-16T02:53:33.410Z,1.47
2023-03-16T02:56:03.028Z,1.48
2023-03-16T02:58:32.851Z,1.73
2023-03-16T03:01:02.134Z,1.94
2023-03-16T03:03:29.253Z,1.94
2023-03-16T03:05:56.242Z,2.02
2023-03-16T03:08:23.670Z,1.94
2023-03-16T03:10:51.520Z,1.96
2023-03-16T03:13:19.020Z,1.87
2023-03-16T03:15:45.857Z,2.08
2023-03-16T03:18:14.712Z,2.20
2023-03-16T03:20:41.760Z,2.28
2023-03-16T03:23:10.186Z,2.32
2023-03-16T03:25:37.010Z,2.27
2023-03-16T03:28:08.494Z,2.25
2023-03-16T03:30:35.879Z,2.23
2023-03-16T03:33:03.877Z,2.19
2023-03-16T03:35:31.839Z,2.13
2023-03-16T03:37:58.939Z,2.08
2023-03-16T03:40:26.670Z,2.07
2023-03-16T03:42:58.351Z,2.12
2023-03-16T03:45:25.709Z,2.14
2023-03-16T03:47:52.503Z,2.24
2023-03-16T03:50:21.577Z,2.14
2023-03-16T03:53:08.700Z,2.53
2023-03-16T03:55:49.960Z,2.23
2023-03-16T03:58:16.863Z,2.17
2023-03-16T04:00:43.896Z,2.03
2023-03-16T04:03:10.937Z,1.83
2023-03-16T04:05:43.757Z,1.73
2023-03-16T04:08:11.837Z,1.68
2023-03-16T04:10:39.393Z,1.65
2023-03-16T04:13:06.302Z,1.80
2023-03-16T04:15:35.326Z,1.68
2023-03-16T04:18:08.701Z,1.66
2023-03-16T04:20:36.491Z,1.81
2023-03-16T04:23:03.508Z,1.78
2023-03-16T04:25:31.525Z,1.58
2023-03-16T04:27:59.197Z,1.33
2023-03-16T04:30:31.068Z,1.22
2023-03-16T04:33:09.972Z,1.39
2023-03-16T04:35:36.918Z,1.44
2023-03-16T04:38:03.721Z,1.37
2023-03-16T04:40:39.507Z,1.38
2023-03-16T04:43:13.729Z,1.33
2023-03-16T04:45:42.188Z,1.35
2023-03-16T04:48:10.289Z,1.27
2023-03-16T04:50:37.978Z,1.20
2023-03-16T04:53:05.200Z,1.02
2023-03-16T04:55:32.908Z,0.96
2023-03-16T04:58:00.111Z,0.93
2023-03-16T05:00:32.188Z,0.94
2023-03-16T05:03:04.498Z,0.92
2023-03-16T05:05:31.638Z,1.00
2023-03-16T05:07:58.537Z,0.96
2023-03-16T05:10:28.291Z,0.93
2023-03-16T05:12:56.229Z,1.06
2023-03-16T05:15:23.207Z,0.94
2023-03-16T05:17:59.591Z,0.89
2023-03-16T05:20:26.392Z,0.95
2023-03-16T05:22:57.401Z,0.95
2023-03-16T05:25:27.716Z,0.85
2023-03-16T05:27:57.702Z,0.78
2023-03-16T05:30:45.385Z,0.74
2023-03-16T05:33:16.638Z,1.04
2023-03-16T05:35:46.800Z,1.02
2023-03-16T05:38:15.927Z,1.01
2023-03-16T05:40:44.076Z,1.23
2023-03-16T05:43:20.524Z,1.26
2023-03-16T05:45:50.556Z,1.42
2023-03-16T05:48:18.759Z,1.71
2023-03-16T05:50:50.925Z,1.71
2023-03-16T05:53:21.102Z,1.81
2023-03-16T05:55:53.820Z,1.87
2023-03-16T05:58:21.423Z,1.97
2023-03-16T06:00:50.562Z,2.02
2023-03-16T06:03:28.609Z,2.23
2023-03-16T06:05:57.725Z,2.29
2023-03-16T06:08:30.474Z,2.45
2023-03-16T06:11:05.944Z,2.78
2023-03-16T06:13:32.864Z,2.86
2023-03-16T06:15:59.868Z,2.96
2023-03-16T06:18:27.259Z,3.19
2023-03-16T06:20:54.062Z,3.24
2023-03-16T06:23:21.951Z,3.42
2023-03-16T06:25:50.624Z,3.19
2023-03-16T06:28:21.288Z,3.36
2023-03-16T06:30:48.239Z,3.56
2023-03-16T06:33:15.013Z,3.67
2023-03-16T06:35:41.997Z,3.75
2023-03-16T06:38:18.536Z,3.75
2023-03-16T06:41:08.349Z,3.83
2023-03-16T06:43:36.042Z,3.97
2023-03-16T06:46:03.752Z,4.14
2023-03-16T06:48:30.810Z,4.27
2023-03-16T06:50:57.948Z,4.51
2023-03-16T06:53:27.748Z,4.72
2023-03-16T06:55:56.103Z,4.70
2023-03-16T06:58:26.146Z,4.84
2023-03-16T07:00:54.153Z,4.89
2023-03-16T07:03:21.765Z,4.98
2023-03-16T07:05:54.757Z,5.07
2023-03-16T07:08:21.958Z,5.09
2023-03-16T07:10:50.919Z,5.04
2023-03-16T07:13:18.267Z,5.06
2023-03-16T07:15:45.203Z,5.06
2023-03-16T07:18:14.878Z,5.06
2023-03-16T07:20:42.500Z,5.11
2023-03-16T07:23:09.321Z,5.31
2023-03-16T07:25:36.137Z,5.47
2023-03-16T07:28:04.345Z,5.48
2023-03-16T07:30:36.924Z,5.49
2023-03-16T07:33:05.585Z,5.45
2023-03-16T07:35:33.454Z,5.57
2023-03-16T07:38:01.637Z,5.35
2023-03-16T07:40:28.828Z,5.39
2023-03-16T07:43:04.414Z,5.54
2023-03-16T07:45:36.085Z,5.54
2023-03-16T07:48:04.250Z,5.63
2023-03-16T07:50:39.196Z,5.72
2023-03-16T07:53:06.291Z,5.74
2023-03-16T07:55:39.534Z,5.72
2023-03-16T07:58:08.161Z,5.81
2023-03-16T08:00:39.172Z,5.96
2023-03-16T08:03:06.436Z,6.09
2023-03-16T08:05:35.353Z,6.02
2023-03-16T08:08:09.775Z,6.11
2023-03-16T08:10:39.292Z,5.99
2023-03-16T08:13:16.001Z,5.85
2023-03-16T08:16:02.447Z,5.93
2023-03-16T08:18:35.488Z,6.20
2023-03-16T08:21:03.334Z,6.35
2023-03-16T08:23:33.742Z,6.26
2023-03-16T08:26:01.757Z,6.45
2023-03-16T08:28:28.974Z,6.61
2023-03-16T08:30:58.705Z,6.57
2023-03-16T08:33:46.950Z,6.45
2023-03-16T08:36:17.343Z,6.27
2023-03-16T08:39:00.068Z,6.28
2023-03-16T08:41:30.936Z,6.33
2023-03-16T08:44:03.427Z,6.46
2023-03-16T08:46:31.074Z,6.50
2023-03-16T08:48:59.460Z,6.79
2023-03-16T08:51:27.524Z,6.82
2023-03-16T08:53:54.684Z,6.86
2023-03-16T08:56:21.798Z,6.98
2023-03-16T08:58:52.356Z,6.99
2023-03-16T09:01:19.828Z,6.98
2023-03-16T09:03:51.502Z,6.81
2023-03-16T09:06:18.897Z,6.74
2023-03-16T09:08:46.260Z,6.55
2023-03-16T09:11:16.055Z,6.67
2023-03-16T09:13:47.522Z,6.59
2023-03-16T09:16:16.367Z,6.71
2023-03-16T09:18:44.136Z,6.79
2023-03-16T09:21:13.988Z,6.91
2023-03-16T09:23:43.052Z,7.03
2023-03-16T09:26:12.666Z,7.08
2023-03-16T09:28:42.333Z,7.30
2023-03-16T09:31:15.580Z,7.35
2023-03-16T09:33:42.953Z,7.67
2023-03-16T09:36:11.676Z,7.60
2023-03-16T09:38:38.757Z,7.64
2023-03-16T09:41:18.505Z,7.60
2023-03-16T09:44:10.706Z,7.39
2023-03-16T09:46:43.767Z,7.46
2023-03-16T09:49:14.272Z,7.36
2023-03-16T09:52:06.384Z,7.33
2023-03-16T09:54:43.127Z,7.35
2023-03-16T09:57:26.160Z,7.63
2023-03-16T09:59:53.425Z,7.80
2023-03-16T10:02:23.248Z,7.81
2023-03-16T10:04:58.726Z,7.79
2023-03-16T10:08:14.271Z,7.77
2023-03-16T10:11:05.632Z,7.71
2023-03-16T10:13:51.587Z,7.75
2023-03-16T10:16:20.635Z,7.63
2023-03-16T10:18:52.486Z,7.71
2023-03-16T10:21:21.236Z,7.93
2023-03-16T10:23:49.530Z,7.94
2023-03-16T10:26:24.074Z,8.11
2023-03-16T10:28:51.364Z,7.92
2023-03-16T10:31:21.855Z,8.00
2023-03-16T10:33:53.488Z,7.82
2023-03-16T10:36:34.740Z,7.98
2023-03-16T10:39:09.406Z,8.32
2023-03-16T10:41:43.418Z,8.07
2023-03-16T10:44:15.798Z,8.21
2023-03-16T10:47:00.708Z,8.01
2023-03-16T10:49:39.563Z,8.08
2023-03-16T10:52:34.861Z,8.09
2023-03-16T10:55:11.197Z,8.47
2023-03-16T10:57:42.759Z,8.39
2023-03-16T11:00:21.442Z,8.56
2023-03-16T11:02:49.846Z,8.34
2023-03-16T11:05:19.304Z,8.38
2023-03-16T11:08:10.821Z,8.38
2023-03-16T11:10:54.681Z,8.39
2023-03-16T11:13:26.453Z,8.26
2023-03-16T11:16:00.625Z,8.26
2023-03-16T11:18:32.529Z,8.39
2023-03-16T11:21:39.931Z,8.63
2023-03-16T11:24:19.313Z,8.68
2023-03-16T11:26:54.398Z,8.59
2023-03-16T11:29:32.975Z,8.72
2023-03-16T11:32:29.576Z,8.81
2023-03-16T11:34:56.672Z,8.69
2023-03-16T11:37:29.286Z,8.65
2023-03-16T11:40:17.723Z,8.90
2023-03-16T11:43:03.637Z,8.79
2023-03-16T11:46:05.583Z,8.76
2023-03-16T11:48:46.459Z,8.77
2023-03-16T11:51:38.818Z,8.71
2023-03-16T11:54:31.467Z,8.81
2023-03-16T11:57:05.683Z,8.89
2023-03-16T11:59:32.649Z,9.01
2023-03-16T12:02:16.318Z,9.33
2023-03-16T12:05:18.183Z,9.04
2023-03-16T12:08:04.599Z,9.04
2023-03-16T12:10:42.008Z,9.11
2023-03-16T12:13:36.145Z,9.14
2023-03-16T12:16:11.053Z,9.19
2023-03-16T12:19:07.103Z,9.07
2023-03-16T12:21:39.865Z,9.12
2023-03-16T12:24:18.746Z,9.20
2023-03-16T12:26:46.337Z,8.95
2023-03-16T12:29:21.209Z,9.06
2023-03-16T12:31:59.362Z,9.28
2023-03-16T12:34:32.947Z,9.48
2023-03-16T12:37:36.589Z,9.41
2023-03-16T12:40:15.874Z,9.43
2023-03-16T12:43:18.670Z,9.51
2023-03-16T12:45:57.782Z,9.61
2023-03-16T12:48:45.229Z,9.62
2023-03-16T12:51:14.424Z,9.52
2023-03-16T12:53:55.104Z,9.15
2023-03-16T12:56:37.573Z,9.13
2023-03-16T12:59:07.760Z,9.25
2023-03-16T13:01:38.542Z,9.33
2023-03-16T13:04:16.375Z,9.50
2023-03-16T13:06:47.632Z,9.37
2023-03-16T13:09:20.270Z,9.39
2023-03-16T13:11:53.491Z,9.48
2023-03-16T13:14:40.754Z,9.76
2023-03-16T13:17:28.040Z,9.87
2023-03-16T13:20:30.281Z,9.59
2023-03-16T13:23:30.695Z,9.60
2023-03-16T13:26:00.416Z,9.77
2023-03-16T13:28:31.799Z,9.43
2023-03-16T13:31:00.466Z,9.61
2023-03-16T13:33:31.554Z,9.65
2023-03-16T13:36:00.579Z,9.64
2023-03-16T13:38:31.536Z,9.71
2023-03-16T13:41:10.418Z,9.78
2023-03-16T13:43:44.432Z,9.89
2023-03-16T13:46:19.522Z,9.85
2023-03-16T13:48:50.524Z,9.76
2023-03-16T13:51:23.046Z,9.74
2023-03-16T13:53:51.096Z,9.58
2023-03-16T13:56:40.501Z,9.58
2023-03-16T13:59:10.729Z,9.81
2023-03-16T14:01:37.930Z,9.67
2023-03-16T14:04:14.327Z,9.58
2023-03-16T14:06:43.979Z,9.60
2023-03-16T14:09:18.228Z,9.67
2023-03-16T14:11:48.743Z,9.91
2023-03-16T14:14:17.280Z,9.97
2023-03-16T14:16:44.790Z,9.97
2023-03-16T14:19:14.266Z,9.72
2023-03-16T14:21:45.974Z,9.65
2023-03-16T14:24:31.014Z,9.74
2023-03-16T14:27:08.947Z,9.88
2023-03-16T14:29:35.864Z,9.90
2023-03-16T14:32:03.413Z,9.98
2023-03-16T14:34:41.436Z,9.93
2023-03-16T14:37:13.855Z,10.03
2023-03-16T14:39:41.426Z,9.99
2023-03-16T14:42:19.046Z,9.96
2023-03-16T14:44:46.646Z,10.02
2023-03-16T14:47:25.552Z,10.06
2023-03-16T14:49:53.480Z,10.06
2023-03-16T14:52:27.417Z,10.15
2023-03-16T14:54:55.477Z,10.22
2023-03-16T14:57:22.936Z,9.93
2023-03-16T14:59:49.880Z,9.95
2023-03-16T15:02:30.827Z,9.95
2023-03-16T15:04:59.533Z,9.96
2023-03-16T15:07:33.776Z,10.06
2023-03-16T15:10:07.460Z,10.27
2023-03-16T15:12:38.083Z,10.00
2023-03-16T15:15:20.167Z,10.10
2023-03-16T15:17:47.497Z,10.10
2023-03-16T15:20:36.051Z,10.04
2023-03-16T15:23:05.149Z,9.98
2023-03-16T15:25:40.000Z,9.94
2023-03-16T15:28:17.675Z,9.89
2023-03-16T15:30:49.780Z,9.86
2023-03-16T15:33:17.350Z,9.76
2023-03-16T15:35:47.005Z,9.77
2023-03-16T15:38:26.049Z,9.80
2023-03-16T15:40:53.635Z,9.81
2023-03-16T15:43:29.817Z,9.78
2023-03-16T15:46:03.712Z,9.81
2023-03-16T15:48:31.157Z,9.73
2023-03-16T15:51:07.769Z,9.69
2023-03-16T15:53:51.433Z,9.70
2023-03-16T15:56:22.809Z,9.72
2023-03-16T15:58:50.905Z,9.60
2023-03-16T16:01:25.894Z,9.55
2023-03-16T16:03:54.519Z,9.60
2023-03-16T16:06:22.373Z,9.61
2023-03-16T16:08:49.428Z,9.51
2023-03-16T16:11:19.355Z,9.46
2023-03-16T16:13:46.652Z,9.46
2023-03-16T16:16:15.618Z,9.48
2023-03-16T16:18:43.167Z,9.38
2023-03-16T16:21:19.746Z,9.36
2023-03-16T16:23:47.932Z,9.33
2023-03-16T16:26:26.297Z,9.29
2023-03-16T16:28:55.870Z,9.21
2023-03-16T16:31:23.813Z,9.22
2023-03-16T16:33:51.017Z,9.29
2023-03-16T16:36:21.076Z,9.85
2023-03-16T16:38:48.688Z,10.08
2023-03-16T16:41:24.576Z,10.00
2023-03-16T16:43:52.931Z,9.70
2023-03-16T16:46:28.832Z,9.37
2023-03-16T16:49:01.859Z,9.11
2023-03-16T16:51:30.753Z,9.02
2023-03-16T16:53:59.060Z,8.87
2023-03-16T16:56:32.127Z,8.81
2023-03-16T16:59:02.071Z,8.73
2023-03-16T17:01:34.742Z,8.53
2023-03-16T17:04:03.048Z,8.36
2023-03-16T17:06:30.615Z,8.30
2023-03-16T17:08:57.635Z,8.30
2023-03-16T17:11:27.649Z,8.37
2023-03-16T17:13:55.571Z,8.30
2023-03-16T17:16:28.885Z,8.23
2023-03-16T17:18:55.788Z,8.15
2023-03-16T17:21:25.302Z,8.07
2023-03-16T17:23:52.974Z,8.00
2023-03-16T17:26:31.770Z,7.91
2023-03-16T17:29:02.745Z,7.76
2023-03-16T17:31:35.256Z,7.69
2023-03-16T17:34:06.833Z,7.69
2023-03-16T17:36:33.825Z,7.64
2023-03-16T17:39:02.194Z,7.74
2023-03-16T17:41:33.106Z,7.78
2023-03-16T17:44:04.749Z,7.76
2023-03-16T17:46:31.895Z,7.79
2023-03-16T17:49:00.249Z,7.72
2023-03-16T17:51:27.393Z,7.55
2023-03-16T17:53:55.875Z,7.46
2023-03-16T17:56:25.717Z,7.16
2023-03-16T17:58:57.271Z,7.10
2023-03-16T18:01:32.713Z,7.31
2023-03-16T18:04:01.343Z,7.40
2023-03-16T18:06:29.902Z,7.34
2023-03-16T18:08:57.609Z,7.27
2023-03-16T18:11:35.794Z,7.35
2023-03-16T18:14:04.972Z,7.33
2023-03-16T18:16:32.331Z,7.19
2023-03-16T18:19:04.253Z,6.93
2023-03-16T18:21:31.574Z,7.03
2023-03-16T18:27:21.195Z,7.04
2023-03-16T18:34:00.012Z,6.66
2023-03-16T18:37:11.051Z,6.71
2023-03-16T18:40:19.643Z,6.60
2023-03-16T18:42:46.745Z,6.40
2023-03-16T18:45:16.681Z,6.30
2023-03-16T18:47:54.554Z,6.53
2023-03-16T18:50:29.843Z,6.61
2023-03-16T18:53:00.724Z,6.47
2023-03-16T18:55:31.181Z,6.46
2023-03-16T18:57:58.814Z,6.44
2023-03-16T19:00:27.419Z,6.44
2023-03-16T19:03:02.436Z,6.32
2023-03-16T19:05:39.674Z,6.20
2023-03-16T19:08:06.954Z,5.96
2023-03-16T19:10:37.455Z,6.00
2023-03-16T19:13:11.209Z,5.90
2023-03-16T19:15:39.440Z,5.92
2023-03-16T19:18:06.419Z,5.87
2023-03-16T19:20:34.878Z,6.01
2023-03-16T19:23:08.290Z,6.17
2023-03-16T19:25:41.349Z,6.15
2023-03-16T19:28:14.919Z,5.96
2023-03-16T19:30:42.095Z,5.87
2023-03-16T19:33:19.865Z,5.68
2023-03-16T19:35:51.900Z,5.62
2023-03-16T19:38:20.038Z,5.64
2023-03-16T19:40:52.108Z,5.74
2023-03-16T19:43:20.640Z,5.87
2023-03-16T19:45:48.817Z,5.78
2023-03-16T19:48:22.808Z,5.88
2023-03-16T19:50:51.209Z,5.80
2023-03-16T19:53:20.932Z,5.83
2023-03-16T19:55:49.632Z,5.74
2023-03-16T19:58:28.853Z,5.57
2023-03-16T20:00:56.710Z,5.66
2023-03-16T20:03:23.584Z,5.59
2023-03-16T20:05:50.444Z,5.55
2023-03-16T20:08:28.727Z,5.54
2023-03-16T20:11:02.284Z,5.51
2023-03-16T20:13:31.490Z,5.57
2023-03-16T20:15:58.466Z,5.45
2023-03-16T20:18:25.575Z,5.28
2023-03-16T20:20:52.404Z,5.19
2023-03-16T20:23:27.110Z,5.16
2023-03-16T20:25:56.868Z,5.07
2023-03-16T20:28:27.879Z,5.22
2023-03-16T20:30:54.849Z,5.10
2023-03-16T20:33:24.481Z,5.15
2023-03-16T20:35:55.306Z,5.16
2023-03-16T20:38:25.427Z,5.08
2023-03-16T20:40:54.047Z,5.16
2023-03-16T20:43:30.349Z,5.22
2023-03-16T20:46:03.950Z,5.05
2023-03-16T20:48:32.287Z,4.88
2023-03-16T20:51:00.681Z,4.66
2023-03-16T20:53:27.728Z,4.63
2023-03-16T20:55:55.320Z,4.58
2023-03-16T20:58:28.096Z,4.35
2023-03-16T21:00:57.890Z,4.25
2023-03-16T21:03:28.625Z,4.26
2023-03-16T21:05:59.617Z,4.25
2023-03-16T21:08:27.285Z,4.50
2023-03-16T21:10:56.424Z,4.51
2023-03-16T21:13:28.050Z,4.62
2023-03-16T21:15:56.442Z,4.49
2023-03-16T21:18:23.794Z,4.51
2023-03-16T21:20:51.416Z,4.69
2023-03-16T21:23:21.281Z,4.61
2023-03-16T21:25:59.806Z,4.61
2023-03-16T21:28:29.692Z,4.49
2023-03-16T21:30:58.259Z,4.34
2023-03-16T21:33:37.382Z,4.18
2023-03-16T21:36:16.887Z,4.06
2023-03-16T21:38:44.906Z,3.95
2023-03-16T21:41:12.082Z,4.03
2023-03-16T21:43:39.742Z,4.05
2023-03-16T21:46:18.048Z,3.93
2023-03-16T21:48:57.499Z,3.85
2023-03-16T21:51:31.533Z,3.97
2023-03-16T21:53:59.046Z,3.98
2023-03-16T21:56:26.412Z,3.98
2023-03-16T21:58:54.212Z,3.96
2023-03-16T22:01:29.899Z,3.94
2023-03-16T22:04:11.022Z,3.86
2023-03-16T22:06:37.858Z,3.78
2023-03-16T22:09:04.662Z,3.66
2023-03-16T22:11:32.231Z,3.56
2023-03-16T22:13:59.626Z,3.53
2023-03-16T22:16:28.913Z,3.46
2023-03-16T22:18:58.345Z,3.41
2023-03-16T22:21:27.661Z,3.51
2023-03-16T22:23:56.439Z,3.57
2023-03-16T22:26:24.393Z,3.71
2023-03-16T22:28:52.567Z,3.85
2023-03-16T22:31:34.861Z,3.85
2023-03-16T22:34:03.594Z,3.80
2023-03-16T22:36:32.410Z,3.63
2023-03-16T22:39:08.313Z,3.70
2023-03-16T22:41:35.312Z,3.68
2023-03-16T22:44:04.205Z,3.52
2023-03-16T22:46:31.578Z,3.41
2023-03-16T22:48:58.689Z,3.41
2023-03-16T22:51:35.925Z,3.53
2023-03-16T22:54:08.730Z,3.40
2023-03-16T22:56:36.276Z,3.35
2023-03-16T22:59:06.186Z,3.34
2023-03-16T23:01:42.653Z,3.31
2023-03-16T23:04:32.866Z,3.30
2023-03-16T23:06:59.839Z,3.47
2023-03-16T23:09:26.774Z,3.38
2023-03-16T23:11:56.132Z,3.43
2023-03-16T23:14:25.975Z,3.52
2023-03-16T23:16:53.591Z,3.44
2023-03-16T23:19:29.939Z,3.28
2023-03-16T23:22:01.977Z,3.54
2023-03-16T23:24:28.866Z,3.63
2023-03-16T23:26:56.251Z,3.66
2023-03-16T23:29:24.396Z,3.74
2023-03-16T23:31:51.457Z,3.62
2023-03-16T23:34:21.488Z,3.41
2023-03-16T23:36:49.935Z,3.28
2023-03-16T23:39:16.888Z,3.11
2023-03-16T23:41:46.824Z,2.94
2023-03-16T23:44:23.576Z,2.83
2023-03-16T23:46:51.109Z,2.74
2023-03-16T23:49:22.445Z,2.68
2023-03-16T23:51:51.101Z,2.57
2023-03-16T23:54:24.619Z,2.52
2023-03-16T23:56:52.107Z,2.49
2023-03-16T23:59:20.430Z,2.43
